PAGY/SGY METAR and TAF weather

Enter ICAO airport designator
Station Type Date Time Source
PAGY METAR 2020/11/27 02:53 UTC NOAA

PAGY 270253Z AUTO 20013KT 10SM OVC095 05/M01 A2975 RMK AO2 SLP073 T00501011 51023 TSNO $


Station Type Date Time Source
PAGY Decoded METAR 2020/11/27 02:53 UTC NOAA

SKAGWAY AIRPORT, AK, United States (PAGY) 59-28N 135-19W 5M
Nov 26, 2020 - 09:53 PM EST / 2020.11.27 0253 UTC
Wind: from the SSW (200 degrees) at 15 MPH (13 KT):0
Visibility: 10 mile(s):0
Sky conditions: overcast
Temperature: 41.0 F (5.0 C)
Dew Point: 30.0 F (-1.1 C)
Relative Humidity: 64%
Pressure (altimeter): 29.75 in. Hg (1007 hPa)
Pressure tendency: 0.07 inches (2.3 hPa) higher than three hours ago
ob: PAGY 270253Z AUTO 20013KT 10SM OVC095 05/M01 A2975 RMK AO2 SLP073 T00501011 51023 TSNO
cycle: 3

Station Type Date Time Source
PAGY TAF 2020/11/26 18:27 UTC NOAA

TAF PAGY 261725Z 2618/2718 21019G28KT 6SM -RA BR SCT020 OVC040
FM270000 21024G34KT P6SM BKN250
AMD LTD TO CLD VIS AND WIND

Example: see airport list